Time;durP1;ratioP1;P1;durP2;ratioP2;P2;SDS_P1;SDS_P2;PMS_P1;PMS_P2;Temp;Humidity;BMP_temperature;BMP_pressure;BME280_temperature;BME280_humidity;BME280_pressure;Samples;Min_cycle;Max_cycle;Signal;HPM_P1;HPM_P2
2022/05/12 00:00:12;;;;;;;1999.90;999.90;;;16.80;99.90;;;;;;4935963;29;20031;-76
2022/05/12 00:02:39;;;;;;;1999.90;999.90;;;16.80;99.90;;;;;;4946232;28;20031;-76
2022/05/12 00:05:07;;;;;;;1999.90;999.90;;;16.90;99.90;;;;;;4935979;29;20035;-75
2022/05/12 00:07:33;;;;;;;1999.90;999.90;;;16.90;99.90;;;;;;4936350;29;20039;-76
2022/05/12 00:10:00;;;;;;;1999.90;999.90;;;16.80;99.90;;;;;;4936519;29;20055;-76
2022/05/12 00:12:38;;;;;;;1999.90;999.90;;;16.70;99.90;;;;;;4936287;29;20139;-78
2022/05/12 00:15:07;;;;;;;1999.90;999.90;;;16.70;99.90;;;;;;4916588;29;20398;-78
2022/05/12 00:17:34;;;;;;;1999.90;999.90;;;16.60;99.90;;;;;;4914223;29;20028;-76
2022/05/12 00:20:00;;;;;;;1999.90;999.90;;;16.60;99.90;;;;;;4927114;29;20395;-77
2022/05/12 00:22:27;;;;;;;1999.90;999.90;;;16.60;99.90;;;;;;4917927;29;20032;-77
2022/05/12 00:24:53;;;;;;;1999.90;999.90;;;16.60;99.90;;;;;;4928195;29;20024;-77
2022/05/12 00:27:19;;;;;;;1999.90;999.90;;;16.60;99.90;;;;;;4918161;29;20043;-76
2022/05/12 00:29:45;;;;;;;1999.90;999.90;;;16.60;99.90;;;;;;4917054;29;20039;-76
2022/05/12 00:32:11;;;;;;;1999.90;999.90;;;16.50;99.90;;;;;;4916993;29;20371;-76
2022/05/12 00:34:36;;;;;;;1999.90;999.90;;;16.50;99.90;;;;;;4915241;29;20028;-76
2022/05/12 00:37:03;;;;;;;1999.90;999.90;;;16.50;99.90;;;;;;4917101;29;20080;-77
2022/05/12 00:39:28;;;;;;;1999.90;999.90;;;16.50;99.90;;;;;;4925360;29;20035;-77
2022/05/12 00:41:55;;;;;;;1999.90;999.90;;;16.50;99.90;;;;;;4917330;29;20428;-78
2022/05/12 00:44:21;;;;;;;1999.90;999.90;;;16.50;99.90;;;;;;4922288;29;20058;-78
2022/05/12 00:46:53;;;;;;;1999.90;999.90;;;16.50;99.90;;;;;;4927588;29;20059;-78
2022/05/12 00:49:34;;;;;;;1999.90;999.90;;;16.50;99.90;;;;;;4917783;29;20490;-78
2022/05/12 00:52:02;;;;;;;1999.90;999.90;;;16.50;99.90;;;;;;4932964;29;20400;-77
2022/05/12 00:54:28;;;;;;;1999.90;999.90;;;16.40;99.90;;;;;;4919363;29;20111;-76
2022/05/12 00:56:56;;;;;;;1999.90;999.90;;;16.40;99.90;;;;;;4917226;29;20115;-77
2022/05/12 00:59:32;;;;;;;1999.90;999.90;;;16.40;99.90;;;;;;4919345;29;20023;-77
2022/05/12 01:02:01;;;;;;;1999.90;999.90;;;16.40;99.90;;;;;;4916998;29;20036;-77
2022/05/12 01:04:29;;;;;;;1999.90;999.90;;;16.40;99.90;;;;;;4916585;29;20047;-78
2022/05/12 01:06:56;;;;;;;1999.90;999.90;;;16.40;99.90;;;;;;4916836;29;20028;-76
2022/05/12 01:09:21;;;;;;;1999.90;999.90;;;16.40;99.90;;;;;;4916702;29;20024;-77
2022/05/12 01:11:51;;;;;;;1999.90;999.90;;;16.40;99.90;;;;;;4916506;29;20103;-76
2022/05/12 01:14:17;;;;;;;1999.90;999.90;;;16.40;99.90;;;;;;4916601;29;20044;-76
2022/05/12 01:16:56;;;;;;;1999.90;999.90;;;16.40;99.90;;;;;;4920524;29;20028;-77
2022/05/12 01:19:25;;;;;;;1999.90;999.90;;;16.30;99.90;;;;;;4920027;29;20024;-77
2022/05/12 01:21:52;;;;;;;1999.90;999.90;;;16.30;99.90;;;;;;4929763;29;20102;-77
2022/05/12 01:24:21;;;;;;;1999.90;999.90;;;16.30;99.90;;;;;;4925471;29;20034;-77
2022/05/12 01:26:47;;;;;;;1999.90;999.90;;;16.30;99.90;;;;;;4932838;29;20060;-77
2022/05/12 01:29:17;;;;;;;1999.90;999.90;;;16.30;99.90;;;;;;4918448;29;20063;-78
2022/05/12 01:31:43;;;;;;;1999.90;999.90;;;16.30;99.90;;;;;;4923731;29;20509;-77
2022/05/12 01:34:11;;;;;;;1999.90;999.90;;;16.20;99.90;;;;;;4919960;29;20059;-77
2022/05/12 01:36:37;;;;;;;1999.90;999.90;;;16.20;99.90;;;;;;4920339;29;20441;-77
2022/05/12 01:39:05;;;;;;;1999.90;999.90;;;16.20;99.90;;;;;;4927847;29;20051;-78
2022/05/12 01:41:31;;;;;;;1999.90;999.90;;;16.20;99.90;;;;;;4924920;29;20482;-78
2022/05/12 01:44:00;;;;;;;1999.90;999.90;;;16.20;99.90;;;;;;4920082;29;20024;-78
2022/05/12 01:46:29;;;;;;;1999.90;999.90;;;16.20;99.90;;;;;;4918356;29;20032;-78
2022/05/12 01:48:55;;;;;;;1999.90;999.90;;;16.20;99.90;;;;;;4927569;29;20031;-77
2022/05/12 01:51:21;;;;;;;1999.90;999.90;;;16.20;99.90;;;;;;4921562;29;20060;-77
2022/05/12 01:53:47;;;;;;;1999.90;999.90;;;16.10;99.90;;;;;;4919930;29;20028;-78
2022/05/12 01:56:13;;;;;;;1999.90;999.90;;;16.10;99.90;;;;;;4920533;29;20480;-78
2022/05/12 01:58:39;;;;;;;1999.90;999.90;;;16.10;99.90;;;;;;4926569;29;20111;-76
2022/05/12 02:01:06;;;;;;;1999.90;999.90;;;16.10;99.90;;;;;;4919725;29;20048;-77
2022/05/12 02:03:33;;;;;;;1999.90;999.90;;;16.10;99.90;;;;;;4917426;29;20495;-77
2022/05/12 02:06:01;;;;;;;1999.90;999.90;;;16.00;99.90;;;;;;4919728;29;20535;-77
2022/05/12 02:08:27;;;;;;;1999.90;999.90;;;16.00;99.90;;;;;;4919894;29;20060;-76
2022/05/12 02:10:53;;;;;;;1999.90;999.90;;;16.00;99.90;;;;;;4916826;29;20742;-76
2022/05/12 02:13:21;;;;;;;1999.90;999.90;;;16.00;99.90;;;;;;4926539;29;20023;-77
2022/05/12 02:15:48;;;;;;;1999.90;999.90;;;16.00;99.90;;;;;;4919559;29;20036;-77
2022/05/12 02:18:16;;;;;;;1999.90;999.90;;;16.00;99.90;;;;;;4919024;29;20056;-78
2022/05/12 02:20:42;;;;;;;1999.90;999.90;;;16.00;99.90;;;;;;4922171;29;20039;-77
2022/05/12 02:23:08;;;;;;;1999.90;999.90;;;16.00;99.90;;;;;;4918411;29;20036;-77
2022/05/12 02:25:34;;;;;;;1999.90;999.90;;;16.00;99.90;;;;;;4918862;29;20032;-77
2022/05/12 02:28:00;;;;;;;1999.90;999.90;;;15.90;99.90;;;;;;4918839;29;20084;-78
2022/05/12 02:30:29;;;;;;;1999.90;999.90;;;16.00;99.90;;;;;;4920162;29;20040;-76
2022/05/12 02:32:57;;;;;;;1999.90;999.90;;;16.00;99.90;;;;;;4917754;29;20063;-76
2022/05/12 02:35:24;;;;;;;1999.90;999.90;;;15.90;99.90;;;;;;4918897;29;20044;-77
2022/05/12 02:37:49;;;;;;;1999.90;999.90;;;15.90;99.90;;;;;;4927452;29;20020;-77
2022/05/12 02:40:20;;;;;;;1999.90;999.90;;;15.80;99.90;;;;;;4920802;29;20024;-78
2022/05/12 02:42:49;;;;;;;1999.90;999.90;;;15.80;99.90;;;;;;4930537;29;20028;-76
2022/05/12 02:45:16;;;;;;;1999.90;999.90;;;15.70;99.90;;;;;;4921087;29;20491;-78
2022/05/12 02:47:42;;;;;;;1999.90;999.90;;;15.70;99.90;;;;;;4915676;29;20075;-77
2022/05/12 02:50:10;;;;;;;1999.90;999.90;;;15.70;99.90;;;;;;4919071;29;20032;-76
2022/05/12 02:52:37;;;;;;;1999.90;999.90;;;15.60;99.90;;;;;;4918426;29;20048;-76
2022/05/12 02:55:04;;;;;;;1999.90;999.90;;;15.70;99.90;;;;;;4921581;29;20958;-76
2022/05/12 02:57:30;;;;;;;1999.90;999.90;;;15.60;99.90;;;;;;4928430;29;20028;-77
2022/05/12 02:59:56;;;;;;;1999.90;999.90;;;15.60;99.90;;;;;;4918425;29;20027;-76
2022/05/12 03:02:22;;;;;;;1999.90;999.90;;;15.50;99.90;;;;;;4918574;29;20115;-77
2022/05/12 03:04:49;;;;;;;1999.90;999.90;;;15.50;99.90;;;;;;4917161;29;20495;-76
2022/05/12 03:07:26;;;;;;;1999.90;999.90;;;15.50;99.90;;;;;;4918674;29;20108;-77
2022/05/12 03:09:52;;;;;;;1999.90;999.90;;;15.50;99.90;;;;;;4918699;29;20521;-77
2022/05/12 03:12:17;;;;;;;1999.90;999.90;;;15.50;99.90;;;;;;4916520;29;20036;-77
2022/05/12 03:14:54;;;;;;;1999.90;999.90;;;15.50;99.90;;;;;;4916204;29;20141;-76
2022/05/12 03:17:20;;;;;;;1999.90;999.90;;;15.40;99.90;;;;;;4918439;29;20028;-76
2022/05/12 03:19:46;;;;;;;1999.90;999.90;;;15.40;99.90;;;;;;4917060;29;20075;-76
2022/05/12 03:22:12;;;;;;;1999.90;999.90;;;15.40;99.90;;;;;;4917588;29;20035;-77
2022/05/12 03:24:38;;;;;;;1999.90;999.90;;;15.30;99.90;;;;;;4918282;29;20038;-78
2022/05/12 03:27:04;;;;;;;1999.90;999.90;;;15.40;99.90;;;;;;4923956;29;20043;-76
2022/05/12 03:29:33;;;;;;;1999.90;999.90;;;15.30;99.90;;;;;;4934185;29;20060;-77
2022/05/12 03:31:59;;;;;;;1999.90;999.90;;;15.30;99.90;;;;;;4925733;29;20036;-78
2022/05/12 03:34:26;;;;;;;1999.90;999.90;;;15.20;99.90;;;;;;4917936;29;20043;-78
2022/05/12 03:36:52;;;;;;;1999.90;999.90;;;15.20;99.90;;;;;;4917762;29;20054;-76
2022/05/12 03:39:20;;;;;;;1999.90;999.90;;;15.10;99.90;;;;;;4926183;29;20028;-77
2022/05/12 03:41:46;;;;;;;1999.90;999.90;;;15.20;99.90;;;;;;4918740;29;20032;-77
2022/05/12 03:46:56;;;;;;;1999.90;999.90;;;15.10;99.90;;;;;;4918124;29;20040;-77
2022/05/12 03:49:22;;;;;;;1999.90;999.90;;;15.10;99.90;;;;;;4918395;29;20032;-78
2022/05/12 03:51:48;;;;;;;1999.90;999.90;;;15.00;99.90;;;;;;4915876;29;20495;-78
2022/05/12 03:54:25;;;;;;;1999.90;999.90;;;15.00;99.90;;;;;;4926530;29;20031;-76
2022/05/12 03:56:51;;;;;;;1999.90;999.90;;;14.90;99.90;;;;;;4920188;29;20475;-76
2022/05/12 03:59:16;;;;;;;1999.90;999.90;;;14.90;99.90;;;;;;4919770;29;20027;-77
2022/05/12 04:01:42;;;;;;;1999.90;999.90;;;14.80;99.90;;;;;;4924467;29;20111;-76
2022/05/12 04:04:09;;;;;;;1999.90;999.90;;;14.70;99.90;;;;;;4920627;29;20378;-77
2022/05/12 04:06:36;;;;;;;1999.90;999.90;;;14.70;99.90;;;;;;4916422;29;20096;-77
2022/05/12 04:09:02;;;;;;;1999.90;999.90;;;14.60;99.90;;;;;;4917414;29;20060;-76
2022/05/12 04:11:28;;;;;;;1999.90;999.90;;;14.60;99.90;;;;;;4917219;29;20064;-76
2022/05/12 04:13:54;;;;;;;1999.90;999.90;;;14.60;99.90;;;;;;4916095;29;20406;-76
2022/05/12 04:16:22;;;;;;;1999.90;999.90;;;14.50;99.90;;;;;;4916608;29;20039;-78
2022/05/12 04:18:49;;;;;;;1999.90;999.90;;;14.50;99.90;;;;;;4915709;29;20491;-76
2022/05/12 04:21:16;;;;;;;1999.90;999.90;;;14.50;99.90;;;;;;4917243;29;20046;-76
2022/05/12 04:23:44;;;;;;;1999.90;999.90;;;14.50;99.90;;;;;;4917121;29;20492;-77
2022/05/12 04:26:11;;;;;;;1999.90;999.90;;;14.40;99.90;;;;;;4916093;29;20031;-78
2022/05/12 04:28:37;;;;;;;1999.90;999.90;;;14.40;99.90;;;;;;4919425;29;20020;-76
2022/05/12 04:31:03;;;;;;;1999.90;999.90;;;14.40;99.90;;;;;;4924866;29;20107;-77
2022/05/12 04:36:15;;;;;;;1999.90;999.90;;;14.30;99.90;;;;;;4924066;29;20046;-77
2022/05/12 04:38:41;;;;;;;1999.90;999.90;;;14.30;99.90;;;;;;4923167;29;20020;-76
2022/05/12 04:41:08;;;;;;;1999.90;999.90;;;14.30;99.90;;;;;;4916912;29;20034;-78
2022/05/12 04:43:34;;;;;;;1999.90;999.90;;;14.20;99.90;;;;;;4912411;29;20029;-76
2022/05/12 04:46:11;;;;;;;1999.90;999.90;;;14.20;99.90;;;;;;4911503;29;20115;-77
2022/05/12 04:48:38;;;;;;;1999.90;999.90;;;14.20;99.90;;;;;;4916763;29;20043;-77
2022/05/12 04:51:04;;;;;;;1999.90;999.90;;;14.20;99.90;;;;;;4914775;29;20032;-76
2022/05/12 04:53:31;;;;;;;1999.90;999.90;;;14.20;99.90;;;;;;4917868;29;20085;-77
2022/05/12 04:55:57;;;;;;;1999.90;999.90;;;14.20;99.90;;;;;;4916276;29;20024;-76
2022/05/12 04:58:23;;;;;;;1999.90;999.90;;;14.20;99.90;;;;;;4918625;29;20024;-77
2022/05/12 05:00:50;;;;;;;1999.90;999.90;;;14.10;99.90;;;;;;4915130;29;20525;-77
2022/05/12 05:03:16;;;;;;;1999.90;999.90;;;14.10;99.90;;;;;;4916225;29;20032;-78
2022/05/12 05:05:42;;;;;;;1999.90;999.90;;;14.10;99.90;;;;;;4916425;29;20035;-83
2022/05/12 05:08:11;;;;;;;1999.90;999.90;;;14.20;99.90;;;;;;4918651;29;20451;-77
2022/05/12 05:10:38;;;;;;;1999.90;999.90;;;14.20;99.90;;;;;;4916206;29;20038;-78
2022/05/12 05:13:03;;;;;;;1999.90;999.90;;;14.20;99.90;;;;;;4917147;29;20032;-78
2022/05/12 05:15:29;;;;;;;1999.90;999.90;;;14.20;99.90;;;;;;4920078;29;20542;-77
2022/05/12 05:17:58;;;;;;;1999.90;999.90;;;14.30;99.90;;;;;;4923042;29;20072;-77
2022/05/12 05:20:26;;;;;;;1999.90;999.90;;;14.30;99.90;;;;;;4928493;29;20036;-77
2022/05/12 05:22:53;;;;;;;1999.90;999.90;;;14.30;99.90;;;;;;4912656;29;20039;-77
2022/05/12 05:25:21;;;;;;;1999.90;999.90;;;14.30;99.90;;;;;;4912999;29;20099;-77
2022/05/12 05:27:48;;;;;;;1999.90;999.90;;;14.40;99.90;;;;;;4915807;29;20024;-77
2022/05/12 05:30:18;;;;;;;1999.90;999.90;;;14.40;99.90;;;;;;4917641;29;20444;-78
2022/05/12 05:32:47;;;;;;;1999.90;999.90;;;14.50;99.90;;;;;;4912742;29;20059;-77
2022/05/12 05:35:14;;;;;;;1999.90;999.90;;;14.50;99.90;;;;;;4915968;29;20510;-78
2022/05/12 05:37:42;;;;;;;1999.90;999.90;;;14.60;99.90;;;;;;4916117;29;20027;-77
2022/05/12 05:40:09;;;;;;;1999.90;999.90;;;14.70;99.90;;;;;;4921228;29;20041;-76
2022/05/12 05:42:38;;;;;;;1999.90;999.90;;;14.70;99.90;;;;;;4915619;29;20042;-77
2022/05/12 05:45:10;;;;;;;1999.90;999.90;;;14.80;99.90;;;;;;4916151;29;20040;-77
2022/05/12 05:47:38;;;;;;;1999.90;999.90;;;14.90;99.90;;;;;;4914622;29;20032;-76
2022/05/12 05:50:07;;;;;;;1999.90;999.90;;;15.00;99.90;;;;;;4916741;29;20079;-77
2022/05/12 05:55:18;;;;;;;1999.90;999.90;;;15.00;99.90;;;;;;4911735;29;20031;-77
2022/05/12 05:57:44;;;;;;;1999.90;999.90;;;15.10;99.90;;;;;;4919882;29;20032;-77
2022/05/12 06:00:12;;;;;;;1999.90;999.90;;;15.10;99.90;;;;;;4924259;29;20047;-77
2022/05/12 06:02:38;;;;;;;1999.90;999.90;;;15.20;99.90;;;;;;4925224;29;20036;-77
2022/05/12 06:05:05;;;;;;;1999.90;999.90;;;15.20;99.90;;;;;;4924526;29;20028;-76
2022/05/12 06:07:34;;;;;;;1999.90;999.90;;;15.30;99.90;;;;;;4917388;29;20111;-78
2022/05/12 06:10:00;;;;;;;1999.90;999.90;;;15.20;99.90;;;;;;4925510;29;20479;-77
2022/05/12 06:12:28;;;;;;;1999.90;999.90;;;15.30;99.90;;;;;;4917352;29;20411;-78
2022/05/12 06:14:53;;;;;;;1999.90;999.90;;;15.30;99.90;;;;;;4931718;29;20507;-77
2022/05/12 06:17:19;;;;;;;1999.90;999.90;;;15.40;99.90;;;;;;4917046;29;20043;-77
2022/05/12 06:19:44;;;;;;;1999.90;999.90;;;15.50;99.90;;;;;;4918310;29;20036;-78
2022/05/12 06:22:10;;;;;;;1999.90;999.90;;;15.70;99.90;;;;;;4924008;29;20028;-76
2022/05/12 06:24:38;;;;;;;1999.90;999.90;;;15.90;99.90;;;;;;4911919;29;20037;-77
2022/05/12 06:27:04;;;;;;;1999.90;999.90;;;16.00;99.90;;;;;;4922520;29;20024;-76
2022/05/12 06:29:30;;;;;;;1999.90;999.90;;;16.20;99.90;;;;;;4924566;29;20458;-78
2022/05/12 06:31:56;;;;;;;1999.90;999.90;;;16.40;99.90;;;;;;4916616;29;20043;-77
2022/05/12 06:34:21;;;;;;;1999.90;999.90;;;16.50;99.90;;;;;;4913552;29;20071;-77
2022/05/12 06:36:47;;;;;;;1999.90;999.90;;;16.60;99.90;;;;;;4930311;29;20285;-78
2022/05/12 06:39:13;;;;;;;1999.90;999.90;;;16.60;99.90;;;;;;4923204;29;20024;-77
2022/05/12 06:41:38;;;;;;;1999.90;999.90;;;16.70;99.90;;;;;;4916276;29;21415;-77
2022/05/12 06:44:05;;;;;;;1999.90;999.90;;;16.70;99.90;;;;;;4916750;29;20044;-77
2022/05/12 06:46:30;;;;;;;1999.90;999.90;;;16.80;99.90;;;;;;4917533;29;20027;-77
2022/05/12 06:48:56;;;;;;;1999.90;999.90;;;16.80;99.90;;;;;;4916925;29;20036;-77
2022/05/12 06:51:22;;;;;;;1999.90;999.90;;;16.90;99.90;;;;;;4913804;29;20056;-76
2022/05/12 06:53:48;;;;;;;1999.90;999.90;;;16.90;99.90;;;;;;4921723;29;20547;-78
2022/05/12 06:56:14;;;;;;;1999.90;999.90;;;16.80;99.90;;;;;;4918065;29;20040;-77
2022/05/12 06:58:39;;;;;;;1999.90;999.90;;;16.80;99.90;;;;;;4914037;29;20032;-77
2022/05/12 07:01:06;;;;;;;1999.90;999.90;;;17.00;99.90;;;;;;4913414;29;20043;-78
2022/05/12 07:03:32;;;;;;;1999.90;999.90;;;17.10;99.90;;;;;;4914303;29;20035;-80
2022/05/12 07:05:58;;;;;;;1999.90;999.90;;;17.20;99.90;;;;;;4915406;29;20035;-80
2022/05/12 07:08:26;;;;;;;1999.90;999.90;;;17.20;99.90;;;;;;4914657;29;20555;-79
2022/05/12 07:10:52;;;;;;;1999.90;999.90;;;17.10;99.90;;;;;;4918842;29;20107;-77
2022/05/12 07:13:21;;;;;;;1999.90;999.90;;;17.20;99.90;;;;;;4917372;29;20023;-79
2022/05/12 07:15:50;;;;;;;1999.90;999.90;;;17.30;99.90;;;;;;4910353;29;20142;-79
2022/05/12 07:18:18;;;;;;;1999.90;999.90;;;17.40;99.90;;;;;;4931898;29;20052;-79
2022/05/12 07:28:58;;;;;;;1999.90;999.90;;;17.70;99.90;;;;;;4923150;29;20759;-78
2022/05/12 07:31:24;;;;;;;1999.90;999.90;;;17.90;99.90;;;;;;4918917;29;20032;-77
2022/05/12 07:33:50;;;;;;;1999.90;999.90;;;17.90;99.90;;;;;;4916811;29;20108;-78
2022/05/12 07:36:20;;;;;;;1999.90;999.90;;;17.90;99.90;;;;;;4919135;29;20496;-77
2022/05/12 07:38:47;;;;;;;1999.90;999.90;;;18.20;99.90;;;;;;4919058;29;20037;-77
2022/05/12 07:41:13;;;;;;;1999.90;999.90;;;18.50;99.90;;;;;;4917744;29;20020;-76
2022/05/12 07:43:40;;;;;;;1999.90;999.90;;;19.00;99.90;;;;;;4914523;29;20035;-79
2022/05/12 07:46:07;;;;;;;1999.90;999.90;;;20.50;99.90;;;;;;4913854;29;20028;-78
2022/05/12 07:48:33;;;;;;;1999.90;999.90;;;22.50;99.90;;;;;;4920753;29;20098;-76
2022/05/12 07:50:59;;;;;;;1999.90;999.90;;;22.40;99.70;;;;;;4914255;29;20462;-78
2022/05/12 07:53:25;;;;;;;1999.90;999.90;;;22.10;99.90;;;;;;4914165;29;20039;-75
2022/05/12 07:55:50;;;;;;;1999.90;999.90;;;21.60;99.90;;;;;;4913732;29;20032;-80
2022/05/12 07:58:16;;;;;;;1999.90;999.90;;;20.70;99.90;;;;;;4915732;29;20051;-79
2022/05/12 08:00:42;;;;;;;1999.90;999.90;;;20.00;99.90;;;;;;4908543;29;20032;-80
2022/05/12 08:03:08;;;;;;;1999.90;999.90;;;19.40;99.90;;;;;;4914189;29;20041;-80
2022/05/12 08:05:34;;;;;;;1999.90;999.90;;;19.10;99.90;;;;;;4912371;29;20047;-81
2022/05/12 08:07:59;;;;;;;1999.90;999.90;;;18.80;99.90;;;;;;4913722;29;20494;-76
2022/05/12 08:10:25;;;;;;;1999.90;999.90;;;18.80;99.90;;;;;;4911974;29;20043;-75
2022/05/12 08:12:51;;;;;;;1999.90;999.90;;;18.80;99.90;;;;;;4914651;29;20110;-79
2022/05/12 08:15:18;;;;;;;1999.90;999.90;;;18.90;99.90;;;;;;4912223;29;20039;-75
2022/05/12 08:17:44;;;;;;;1999.90;999.90;;;19.00;99.90;;;;;;4913602;29;20070;-76
2022/05/12 08:20:11;;;;;;;1999.90;999.90;;;18.70;99.90;;;;;;4913410;29;20032;-79
2022/05/12 08:22:38;;;;;;;1999.90;999.90;;;18.70;99.90;;;;;;4915286;29;20032;-75
2022/05/12 08:25:07;;;;;;;1999.90;999.90;;;19.10;99.90;;;;;;4909646;29;20035;-80
2022/05/12 08:27:34;;;;;;;1999.90;999.90;;;19.10;99.90;;;;;;4913980;29;20040;-76
2022/05/12 08:29:59;;;;;;;1999.90;999.90;;;19.50;99.90;;;;;;4911924;29;20039;-80
2022/05/12 08:32:25;;;;;;;1999.90;999.90;;;19.60;99.90;;;;;;4912071;29;20040;-79
2022/05/12 08:34:51;;;;;;;1999.90;999.90;;;19.50;99.90;;;;;;4914291;29;20437;-76
2022/05/12 08:37:17;;;;;;;1999.90;999.90;;;19.40;99.90;;;;;;4910602;29;20059;-78
2022/05/12 08:39:44;;;;;;;1999.90;999.90;;;19.30;99.90;;;;;;4917782;29;20075;-78
2022/05/12 08:42:28;;;;;;;1999.90;999.90;;;19.40;99.90;;;;;;4914183;29;20032;-78
2022/05/12 08:44:57;;;;;;;1999.90;999.90;;;19.00;99.90;;;;;;4914448;29;20031;-78
2022/05/12 08:47:44;;;;;;;1999.90;999.90;;;18.90;99.90;;;;;;4911874;29;20075;-74
2022/05/12 08:50:32;;;;;;;1999.90;999.90;;;19.40;99.90;;;;;;4914086;29;20485;-75
2022/05/12 08:53:12;;;;;;;1999.90;999.90;;;19.20;99.90;;;;;;4922748;29;20931;-74
2022/05/12 08:55:53;;;;;;;1999.90;999.90;;;19.40;99.90;;;;;;4912524;29;20040;-76
2022/05/12 08:58:38;;;;;;;1999.90;999.90;;;19.10;99.90;;;;;;4909397;29;20494;-76
2022/05/12 09:01:17;;;;;;;1999.90;999.90;;;19.00;99.90;;;;;;4910398;29;20023;-77
2022/05/12 09:04:31;;;;;;;1999.90;999.90;;;19.20;99.90;;;;;;4903903;29;20391;-77
2022/05/12 09:07:17;;;;;;;1999.90;999.90;;;19.10;99.90;;;;;;4913043;29;20119;-78
2022/05/12 09:10:00;;;;;;;1999.90;999.90;;;19.60;99.90;;;;;;4904888;29;20072;-75
2022/05/12 09:13:04;;;;;;;1999.90;999.90;;;19.20;99.90;;;;;;4908092;29;20043;-77
2022/05/12 09:15:34;;;;;;;1999.90;999.90;;;19.00;99.90;;;;;;4916048;29;20079;-77
2022/05/12 09:18:01;;;;;;;1999.90;999.90;;;19.80;99.90;;;;;;4920123;29;20035;-79
2022/05/12 09:20:30;;;;;;;1999.90;999.90;;;20.30;99.90;;;;;;4913010;29;20059;-76
2022/05/12 09:22:56;;;;;;;1999.90;999.90;;;20.40;99.90;;;;;;4914356;29;20024;-75
2022/05/12 09:25:31;;;;;;;1999.90;999.90;;;20.10;99.90;;;;;;4911666;29;20036;-75
2022/05/12 09:27:58;;;;;;;1999.90;999.90;;;19.80;99.90;;;;;;4910491;29;20032;-77
2022/05/12 09:30:37;;;;;;;1999.90;999.90;;;20.60;99.90;;;;;;4918002;29;20043;-78
2022/05/12 09:33:04;;;;;;;1999.90;999.90;;;21.20;99.90;;;;;;4912807;29;20028;-77
2022/05/12 09:35:31;;;;;;;1999.90;999.90;;;20.60;99.90;;;;;;4912850;29;20123;-76
2022/05/12 09:37:57;;;;;;;1999.90;999.90;;;21.00;99.90;;;;;;4915735;29;20120;-76
2022/05/12 09:40:26;;;;;;;1999.90;999.90;;;21.50;99.60;;;;;;4922463;29;20035;-78
2022/05/12 09:42:56;;;;;;;1999.90;999.90;;;21.70;99.60;;;;;;4917365;29;20043;-81
2022/05/12 09:45:26;;;;;;;1999.90;999.90;;;21.50;99.70;;;;;;4917650;29;20071;-83
2022/05/12 09:48:09;;;;;;;1999.90;999.90;;;21.50;99.90;;;;;;4915354;29;20043;-80
2022/05/12 09:50:35;;;;;;;1999.90;999.90;;;21.10;99.80;;;;;;4911054;29;20495;-75
2022/05/12 09:53:03;;;;;;;1999.90;999.90;;;20.60;99.90;;;;;;4912195;29;20048;-79
2022/05/12 09:55:33;;;;;;;1999.90;999.90;;;20.70;99.90;;;;;;4916530;29;20042;-77
2022/05/12 09:58:21;;;;;;;1999.90;999.90;;;20.80;99.90;;;;;;4916310;29;20050;-80
2022/05/12 10:01:03;;;;;;;1999.90;999.90;;;20.30;99.90;;;;;;4921758;29;20044;-78
2022/05/12 10:09:28;;;;;;;1999.90;999.90;;;19.80;99.90;;;;;;4915544;29;20415;-78
2022/05/12 10:12:02;;;;;;;1999.90;999.90;;;20.00;99.90;;;;;;4913336;29;20076;-76
2022/05/12 10:14:51;;;;;;;1999.90;999.90;;;20.00;99.90;;;;;;4915944;29;20031;-78
2022/05/12 10:17:40;;;;;;;1999.90;999.90;;;19.60;99.90;;;;;;4926695;29;20509;-78
2022/05/12 10:20:12;;;;;;;1999.90;999.90;;;19.80;99.90;;;;;;4908827;29;20568;-79
2022/05/12 10:22:59;;;;;;;1999.90;999.90;;;20.10;99.90;;;;;;4912018;29;20040;-78
2022/05/12 10:25:59;;;;;;;1999.90;999.90;;;20.80;99.90;;;;;;4915235;29;20028;-76
2022/05/12 10:28:37;;;;;;;1999.90;999.90;;;20.80;99.90;;;;;;4911060;29;20581;-80
2022/05/12 10:31:11;;;;;;;1999.90;999.90;;;21.00;99.90;;;;;;4915265;29;20032;-77
2022/05/12 10:33:44;;;;;;;1999.90;999.90;;;20.50;99.90;;;;;;4903555;29;20432;-76
2022/05/12 10:36:33;;;;;;;1999.90;999.90;;;20.30;99.90;;;;;;4899631;29;20047;-79
2022/05/12 10:39:29;;;;;;;1999.90;999.90;;;20.10;99.90;;;;;;4926232;29;20040;-78
2022/05/12 10:45:33;;;;;;;1999.90;999.90;;;20.50;99.90;;;;;;5112443;23;20587;-92
2022/05/12 10:48:18;;;;;;;1999.90;999.90;;;21.00;99.90;;;;;;4905577;29;20044;-93
2022/05/12 10:54:30;;;;;;;1999.90;999.90;;;21.50;99.90;;;;;;5594089;23;20056;-76
2022/05/12 10:57:26;;;;;;;1999.90;999.90;;;22.30;99.70;;;;;;4899388;29;20048;-77
2022/05/12 11:00:04;;;;;;;1999.90;999.90;;;22.50;98.70;;;;;;4903683;29;20028;-77
2022/05/12 11:02:35;;;;;;;1999.90;999.90;;;22.00;99.00;;;;;;4911917;29;20091;-78
2022/05/12 11:05:27;;;;;;;1999.90;999.90;;;21.50;99.90;;;;;;4914066;29;20122;-80
2022/05/12 11:08:07;;;;;;;1999.90;999.90;;;21.50;99.90;;;;;;4906642;29;20411;-78
2022/05/12 11:10:42;;;;;;;1999.90;999.90;;;22.00;99.90;;;;;;4908756;29;20043;-77
2022/05/12 11:13:14;;;;;;;1999.90;999.90;;;22.20;98.80;;;;;;4917291;29;20481;-77
2022/05/12 11:15:46;;;;;;;1999.90;999.90;;;23.00;98.10;;;;;;4911592;29;20051;-79
2022/05/12 11:18:24;;;;;;;1999.90;999.90;;;22.80;98.80;;;;;;4904770;29;20047;-78
2022/05/12 11:21:04;;;;;;;1999.90;999.90;;;23.30;97.70;;;;;;4903998;29;20035;-78
2022/05/12 11:23:59;;;;;;;1999.90;999.90;;;23.50;97.50;;;;;;4903887;29;20554;-77
2022/05/12 11:26:40;;;;;;;1999.90;999.90;;;22.70;97.90;;;;;;4903020;29;20020;-77
2022/05/12 11:32:42;;;;;;;1999.90;999.90;;;22.20;98.70;;;;;;4908068;29;20098;-79
2022/05/12 11:35:12;;;;;;;1999.90;999.90;;;21.90;99.20;;;;;;4908747;29;20024;-77
2022/05/12 11:37:43;;;;;;;1999.90;999.90;;;21.80;99.40;;;;;;4914146;29;20103;-78
2022/05/12 11:40:12;;;;;;;1999.90;999.90;;;21.60;99.80;;;;;;4910744;29;20799;-78
2022/05/12 11:45:48;;;;;;;1999.90;999.90;;;21.20;99.90;;;;;;4908712;29;20518;-80
2022/05/12 11:48:33;;;;;;;1999.90;999.90;;;21.00;99.90;;;;;;4914886;29;20119;-77
2022/05/12 11:51:04;;;;;;;1999.90;999.90;;;21.00;99.90;;;;;;4911250;29;20356;-81
2022/05/12 11:53:55;;;;;;;1999.90;999.90;;;21.60;99.90;;;;;;4911411;29;20036;-80
2022/05/12 11:56:44;;;;;;;1999.90;999.90;;;21.90;99.90;;;;;;4911528;29;20048;-82
2022/05/12 11:59:16;;;;;;;1999.90;999.90;;;22.20;99.80;;;;;;4909883;29;20036;-83
2022/05/12 12:01:41;;;;;;;1999.90;999.90;;;22.40;98.90;;;;;;4911485;29;20028;-80
2022/05/12 12:04:13;;;;;;;1999.90;999.90;;;21.90;99.30;;;;;;4916406;29;20402;-81
2022/05/12 12:06:40;;;;;;;1999.90;999.90;;;21.90;99.80;;;;;;4914114;29;20111;-77
2022/05/12 12:09:27;;;;;;;1999.90;999.90;;;23.00;98.50;;;;;;4909750;29;20126;-81
2022/05/12 12:11:54;;;;;;;1999.90;999.90;;;23.70;97.90;;;;;;4915036;29;20036;-80
2022/05/12 12:14:56;;;;;;;1999.90;999.90;;;24.30;96.90;;;;;;4915658;29;20031;-82
2022/05/12 12:17:25;;;;;;;1999.90;999.90;;;23.80;97.50;;;;;;4905683;29;20132;-81
2022/05/12 12:19:53;;;;;;;1999.90;999.90;;;23.10;97.90;;;;;;4915796;29;20518;-77
2022/05/12 12:22:35;;;;;;;1999.90;999.90;;;22.70;99.10;;;;;;4925127;29;20510;-80
2022/05/12 12:25:13;;;;;;;1999.90;999.90;;;22.70;98.40;;;;;;4914224;29;20032;-82
2022/05/12 12:27:55;;;;;;;1999.90;999.90;;;22.50;98.90;;;;;;4918422;29;20313;-82
2022/05/12 12:30:23;;;;;;;1999.90;999.90;;;22.50;99.10;;;;;;4912655;29;20159;-81
2022/05/12 12:33:10;;;;;;;1999.90;999.90;;;23.60;98.30;;;;;;4927329;29;20032;-82
2022/05/12 12:36:02;;;;;;;1999.90;999.90;;;24.00;96.80;;;;;;4918700;29;20694;-82
2022/05/12 12:38:49;;;;;;;1999.90;999.90;;;24.30;97.20;;;;;;4917174;29;20109;-81
2022/05/12 12:41:19;;;;;;;1999.90;999.90;;;24.80;96.30;;;;;;4913830;29;20267;-79
2022/05/12 12:44:05;;;;;;;1999.90;999.90;;;24.80;96.40;;;;;;4914495;29;20043;-78
2022/05/12 12:46:57;;;;;;;1999.90;999.90;;;24.50;96.40;;;;;;4910565;29;20032;-80
2022/05/12 12:49:49;;;;;;;1999.90;999.90;;;24.20;96.30;;;;;;4907620;29;20525;-78